Time;durP1;ratioP1;P1;durP2;ratioP2;P2;SDS_P1;SDS_P2;PMS_P1;PMS_P2;Temp;Humidity;BMP_temperature;BMP_pressure;BME280_temperature;BME280_humidity;BME280_pressure;Samples;Min_cycle;Max_cycle;Signal;HPM_P1;HPM_P2
2021/06/24 00:01:22;;;;;;;;;18.50;15.75;;;;;16.93;59.44;101639.28;4943221;28;45290;-57
2021/06/24 00:03:47;;;;;;;;;12.75;12.50;;;;;16.95;59.89;101641.88;4943593;28;45257;-56
2021/06/24 00:06:13;;;;;;;;;17.25;14.25;;;;;16.96;59.78;101648.94;4943272;28;45215;-57
2021/06/24 00:08:39;;;;;;;;;16.00;14.75;;;;;16.94;59.92;101643.66;4941854;28;46033;-56
2021/06/24 00:11:06;;;;;;;;;17.25;15.50;;;;;16.96;59.60;101648.94;4943262;28;45174;-56
2021/06/24 00:13:32;;;;;;;;;16.25;16.25;;;;;16.95;59.61;101641.88;4943268;28;45230;-56
2021/06/24 00:15:58;;;;;;;;;17.00;16.25;;;;;16.96;59.79;101639.19;4942772;28;45449;-57
2021/06/24 00:18:24;;;;;;;;;15.25;15.25;;;;;16.96;59.86;101635.66;4941746;28;47729;-56
2021/06/24 00:20:51;;;;;;;;;13.75;12.25;;;;;16.95;59.57;101629.47;4942814;28;45417;-56
2021/06/24 00:23:18;;;;;;;;;16.00;14.75;;;;;16.96;59.67;101628.56;4941920;28;45326;-56
2021/06/24 00:25:44;;;;;;;;;15.50;14.00;;;;;16.97;59.60;101637.41;4942831;28;45505;-57
2021/06/24 00:28:14;;;;;;;;;13.50;11.75;;;;;16.97;59.67;101634.75;4942438;28;46239;-55
2021/06/24 00:30:40;;;;;;;;;15.25;15.00;;;;;16.97;59.93;101622.34;4942647;28;45304;-56
2021/06/24 00:33:05;;;;;;;;;16.50;13.00;;;;;16.97;59.51;101621.47;4943190;28;45412;-56
2021/06/24 00:35:31;;;;;;;;;13.00;12.50;;;;;16.97;59.94;101624.13;4942809;28;45466;-56
2021/06/24 00:37:56;;;;;;;;;15.75;13.00;;;;;16.98;59.72;101624.09;4942816;28;46374;-56
2021/06/24 00:40:22;;;;;;;;;13.00;13.00;;;;;16.99;59.75;101624.94;4942782;28;45290;-56
2021/06/24 00:42:48;;;;;;;;;15.75;14.00;;;;;17.00;60.13;101621.38;4943014;28;45236;-57
2021/06/24 00:45:14;;;;;;;;;16.25;12.75;;;;;17.01;59.86;101617.81;4942418;28;45228;-56
2021/06/24 00:47:41;;;;;;;;;15.75;13.00;;;;;16.98;59.71;101609.94;4942727;28;45246;-55
2021/06/24 00:50:08;;;;;;;;;15.00;13.00;;;;;17.00;59.83;101616.06;4942554;28;45294;-56
2021/06/24 00:52:34;;;;;;;;;16.25;14.00;;;;;17.02;59.94;101614.25;4943044;28;45369;-55
2021/06/24 00:54:59;;;;;;;;;12.75;12.75;;;;;17.03;59.72;101613.31;4941712;28;45290;-56
2021/06/24 00:57:25;;;;;;;;;16.00;12.75;;;;;17.03;59.74;101608.00;4942566;28;45435;-55
2021/06/24 00:59:52;;;;;;;;;15.25;13.50;;;;;17.02;59.94;101606.28;4942210;28;45354;-55
2021/06/24 01:02:17;;;;;;;;;14.50;12.50;;;;;17.04;59.82;101609.75;4942683;28;45393;-55
2021/06/24 01:04:43;;;;;;;;;17.25;12.50;;;;;17.01;59.72;101608.06;4942151;28;45279;-56
2021/06/24 01:07:08;;;;;;;;;16.50;12.25;;;;;17.03;60.13;101608.00;4942480;28;45199;-56
2021/06/24 01:09:34;;;;;;;;;14.00;12.75;;;;;17.03;59.95;101610.66;4942339;28;45314;-56
2021/06/24 01:12:07;;;;;;;;;14.50;12.75;;;;;17.03;60.04;101608.00;4942506;28;45234;-56
2021/06/24 01:14:32;;;;;;;;;12.00;10.75;;;;;17.03;59.62;101595.63;4941970;28;45445;-57
2021/06/24 01:16:58;;;;;;;;;17.50;15.75;;;;;17.01;59.71;101594.78;4941999;28;46681;-56
2021/06/24 01:19:23;;;;;;;;;13.75;13.00;;;;;17.04;60.13;101593.81;4942223;28;45241;-56
2021/06/24 01:21:49;;;;;;;;;13.50;12.50;;;;;17.03;59.94;101592.06;4942331;28;45243;-56
2021/06/24 01:24:15;;;;;;;;;11.50;11.50;;;;;17.01;60.16;101586.81;4942068;28;45286;-55
2021/06/24 01:26:41;;;;;;;;;12.50;10.75;;;;;17.03;60.02;101592.97;4941883;28;46130;-54
2021/06/24 01:29:08;;;;;;;;;13.25;10.50;;;;;17.03;60.06;101592.06;4952467;28;45620;-55
2021/06/24 01:31:34;;;;;;;;;13.75;12.75;;;;;17.03;60.04;101587.66;4932138;28;45511;-56
2021/06/24 01:34:03;;;;;;;;;15.25;14.75;;;;;17.01;60.05;101584.16;4940514;28;45306;-55
2021/06/24 01:36:29;;;;;;;;;14.50;13.25;;;;;17.01;60.05;101576.19;4940468;28;46213;-56
2021/06/24 01:38:54;;;;;;;;;13.75;13.25;;;;;17.01;59.96;101575.34;4940540;28;45283;-56
2021/06/24 01:41:20;;;;;;;;;12.00;12.00;;;;;17.03;59.76;101576.16;4940792;28;45230;-56
2021/06/24 01:43:46;;;;;;;;;13.25;13.25;;;;;17.03;59.88;101582.34;4940240;28;45515;-56
2021/06/24 01:46:11;;;;;;;;;14.50;12.75;;;;;17.03;60.20;101578.81;4940331;28;46317;-56
2021/06/24 01:48:37;;;;;;;;;13.25;12.75;;;;;17.02;59.73;101574.44;4940271;28;45287;-56
2021/06/24 01:51:05;;;;;;;;;10.25;10.25;;;;;17.03;60.10;101571.72;4940571;28;45384;-56
2021/06/24 01:53:31;;;;;;;;;12.25;10.25;;;;;17.02;60.08;101567.31;4955330;28;45411;-56
2021/06/24 01:55:57;;;;;;;;;8.25;8.25;;;;;17.02;60.12;101579.75;4940119;28;45428;-56
2021/06/24 01:58:24;;;;;;;;;19.75;15.25;;;;;17.01;59.99;101573.53;4940185;28;45392;-56
2021/06/24 02:00:55;;;;;;;;;10.75;9.50;;;;;17.01;60.20;101576.19;4940183;28;45298;-56
2021/06/24 02:03:21;;;;;;;;;10.75;10.75;;;;;16.99;59.70;101574.50;4938896;28;45461;-56
2021/06/24 02:05:51;;;;;;;;;11.00;11.00;;;;;16.98;60.17;101563.03;4937891;28;47212;-56
2021/06/24 02:08:19;;;;;;;;;12.00;12.00;;;;;16.98;59.65;101568.34;4939986;28;45208;-56
2021/06/24 02:10:45;;;;;;;;;11.00;11.00;;;;;16.97;59.93;101569.25;4940285;28;45271;-56
2021/06/24 02:13:12;;;;;;;;;10.00;10.00;;;;;16.97;60.06;101560.41;4940036;28;45318;-56
2021/06/24 02:15:38;;;;;;;;;12.75;10.50;;;;;16.97;59.88;101561.28;4939816;28;46076;-56
2021/06/24 02:18:03;;;;;;;;;10.75;10.75;;;;;16.94;59.78;101548.06;4940022;28;45251;-56
2021/06/24 02:20:29;;;;;;;;;13.00;11.75;;;;;16.97;60.16;101552.47;4940268;28;45449;-56
2021/06/24 02:22:54;;;;;;;;;11.75;11.00;;;;;16.97;59.97;101553.31;4940053;28;45306;-56
2021/06/24 02:25:20;;;;;;;;;11.50;7.50;;;;;16.97;59.98;101552.47;4939940;28;46230;-56
2021/06/24 02:27:45;;;;;;;;;11.00;10.50;;;;;16.95;60.10;101556.94;4939978;28;45212;-56
2021/06/24 02:30:13;;;;;;;;;14.00;12.75;;;;;16.97;60.11;101555.13;4895794;28;1171996;-56
2021/06/24 02:32:39;;;;;;;;;13.00;12.00;;;;;16.97;60.08;101555.13;4941238;28;45350;-56
2021/06/24 02:35:06;;;;;;;;;12.50;9.50;;;;;16.97;59.93;101552.47;4941262;28;45279;-56
2021/06/24 02:37:32;;;;;;;;;9.75;9.75;;;;;16.96;60.18;101553.38;4956184;28;45461;-56
2021/06/24 02:39:58;;;;;;;;;10.75;10.25;;;;;16.97;59.83;101555.13;4941366;28;45188;-55
2021/06/24 02:42:23;;;;;;;;;10.00;9.25;;;;;16.98;59.97;101556.81;4941183;28;45286;-56
2021/06/24 02:44:49;;;;;;;;;13.75;10.25;;;;;16.97;60.02;101549.81;4940988;28;45869;-55
2021/06/24 02:47:14;;;;;;;;;11.75;10.25;;;;;16.95;59.93;101549.81;4941067;28;45234;-56
2021/06/24 02:49:40;;;;;;;;;12.00;10.75;;;;;16.95;59.85;101549.81;4941207;28;45265;-56
2021/06/24 02:52:05;;;;;;;;;12.75;12.50;;;;;16.96;60.05;101548.06;4941100;28;45259;-56
2021/06/24 02:54:31;;;;;;;;;12.25;11.00;;;;;16.96;59.74;101548.91;4940947;28;45380;-56
2021/06/24 02:57:00;;;;;;;;;11.25;10.25;;;;;16.97;59.99;101549.81;4940784;28;45251;-56
2021/06/24 02:59:26;;;;;;;;;12.75;11.50;;;;;16.93;59.96;101546.34;4941025;28;45330;-56
2021/06/24 03:01:51;;;;;;;;;10.00;10.00;;;;;16.96;60.01;101548.06;4940798;28;45380;-56
2021/06/24 03:04:23;;;;;;;;;12.50;10.50;;;;;16.95;59.93;101549.81;4940802;28;45289;-57
2021/06/24 03:06:50;;;;;;;;;12.25;10.75;;;;;16.94;60.04;101540.09;4940971;28;45597;-56
2021/06/24 03:09:15;;;;;;;;;14.50;13.25;;;;;16.95;59.89;101551.63;4940809;28;45263;-57
2021/06/24 03:11:41;;;;;;;;;11.50;10.00;;;;;16.95;60.00;101548.97;4940759;28;45333;-56
2021/06/24 03:14:06;;;;;;;;;12.00;11.50;;;;;16.93;59.73;101550.78;4940553;28;45338;-56
2021/06/24 03:16:32;;;;;;;;;9.75;9.75;;;;;16.93;60.05;101545.47;4940710;28;45418;-57
2021/06/24 03:18:57;;;;;;;;;11.50;11.50;;;;;16.91;59.83;101540.22;4944071;28;45486;-56
2021/06/24 03:21:23;;;;;;;;;12.00;9.25;;;;;16.92;60.12;101546.38;4943887;28;45187;-56
2021/06/24 03:23:48;;;;;;;;;10.75;10.75;;;;;16.90;60.00;101541.97;4943793;28;46146;-56
2021/06/24 03:26:14;;;;;;;;;9.00;8.25;;;;;16.92;60.24;101549.03;4943798;28;45211;-56
2021/06/24 03:28:39;;;;;;;;;13.25;11.50;;;;;16.90;60.07;101544.63;4943596;28;45322;-56
2021/06/24 03:31:05;;;;;;;;;12.50;8.75;;;;;16.90;59.62;101549.94;4943690;28;45489;-56
2021/06/24 03:33:30;;;;;;;;;12.75;11.75;;;;;16.90;59.93;101546.41;4943808;28;46019;-57
2021/06/24 03:35:56;;;;;;;;;11.00;10.75;;;;;16.92;59.77;101541.06;4943827;28;45164;-57
2021/06/24 03:38:21;;;;;;;;;11.00;10.75;;;;;16.88;59.61;101538.47;4943898;28;45296;-56
2021/06/24 03:40:47;;;;;;;;;11.00;11.00;;;;;16.86;60.00;101536.78;4943914;28;45495;-56
2021/06/24 03:43:12;;;;;;;;;10.50;9.75;;;;;16.87;59.79;101536.72;4943409;28;46462;-56
2021/06/24 03:45:39;;;;;;;;;8.75;8.00;;;;;16.86;60.03;101547.41;4943382;28;45306;-56
2021/06/24 03:48:05;;;;;;;;;17.00;10.25;;;;;16.85;59.68;101541.19;4943722;28;45360;-56
2021/06/24 03:50:30;;;;;;;;;9.25;9.25;;;;;16.83;59.91;101534.19;4943629;28;45467;-56
2021/06/24 03:52:56;;;;;;;;;10.75;10.00;;;;;16.80;60.25;101535.16;4943425;28;46345;-56
2021/06/24 03:55:35;;;;;;;;;12.50;11.00;;;;;16.77;59.88;101535.25;4943587;28;45429;-56
2021/06/24 03:58:02;;;;;;;;;13.25;11.00;;;;;16.79;60.01;101535.19;4943446;28;45481;-56
2021/06/24 04:00:27;;;;;;;;;11.00;10.00;;;;;16.78;59.91;101541.41;4958202;28;45487;-56
2021/06/24 04:02:53;;;;;;;;;9.75;9.75;;;;;16.78;59.84;101542.31;4943076;28;46338;-55
2021/06/24 04:05:18;;;;;;;;;12.75;11.50;;;;;16.75;59.96;101537.06;4943314;28;45341;-56
2021/06/24 04:07:43;;;;;;;;;10.00;9.50;;;;;16.76;60.06;101544.13;4942150;28;45731;-56
2021/06/24 04:10:09;;;;;;;;;11.50;11.50;;;;;16.74;59.98;101543.28;4943299;28;45313;-56
2021/06/24 04:12:35;;;;;;;;;10.50;8.00;;;;;16.74;59.58;101545.94;4943122;28;46132;-55
2021/06/24 04:15:00;;;;;;;;;9.75;9.75;;;;;16.73;59.92;101545.06;4942864;28;45378;-56
2021/06/24 04:17:26;;;;;;;;;10.75;10.75;;;;;16.71;60.02;101544.22;4943166;28;45366;-56
2021/06/24 04:19:51;;;;;;;;;10.50;10.00;;;;;16.71;59.99;101543.38;4943202;28;45302;-56
2021/06/24 04:22:16;;;;;;;;;10.50;10.50;;;;;16.70;59.74;101542.53;4942925;28;45474;-56
2021/06/24 04:24:41;;;;;;;;;10.25;10.25;;;;;16.70;59.66;101544.28;4941830;28;45351;-57
2021/06/24 04:27:07;;;;;;;;;12.75;10.25;;;;;16.69;59.95;101537.22;4943175;28;45279;-56
2021/06/24 04:29:32;;;;;;;;;10.50;9.25;;;;;16.67;59.85;101553.19;4941583;28;45552;-56
2021/06/24 04:31:58;;;;;;;;;13.50;12.50;;;;;16.66;59.73;101550.59;4942987;28;45616;-56
2021/06/24 04:34:24;;;;;;;;;11.00;10.50;;;;;16.66;59.77;101548.81;4942959;28;45262;-57
2021/06/24 04:36:49;;;;;;;;;11.50;11.50;;;;;16.64;59.82;101547.09;4942887;28;45255;-56
2021/06/24 04:39:14;;;;;;;;;14.50;12.25;;;;;16.64;59.74;101552.41;4943104;28;45159;-57
2021/06/24 04:41:40;;;;;;;;;13.75;12.75;;;;;16.65;59.67;101554.16;4942636;28;47145;-56
2021/06/24 04:44:06;;;;;;;;;17.00;11.00;;;;;16.66;59.65;101561.22;4942529;28;45187;-56
2021/06/24 04:46:31;;;;;;;;;16.75;14.00;;;;;16.64;59.64;101571.88;4942796;28;45437;-57
2021/06/24 04:48:57;;;;;;;;;12.75;10.25;;;;;16.64;59.59;101569.22;4942644;28;45447;-57
2021/06/24 04:51:22;;;;;;;;;15.50;15.50;;;;;16.64;59.60;101565.69;4942463;28;45268;-56
2021/06/24 04:53:47;;;;;;;;;14.00;11.25;;;;;16.61;59.60;101560.47;4942577;28;45178;-56
2021/06/24 04:56:13;;;;;;;;;11.75;11.00;;;;;16.61;59.75;101563.13;4942593;28;45395;-56
2021/06/24 04:58:38;;;;;;;;;13.00;10.50;;;;;16.62;59.45;101562.22;4942316;28;45243;-57
2021/06/24 05:01:03;;;;;;;;;14.75;11.75;;;;;16.58;59.51;101559.63;4942182;28;45226;-56
2021/06/24 05:03:29;;;;;;;;;12.50;12.50;;;;;16.62;59.32;101567.53;4942257;28;45350;-56
2021/06/24 05:05:54;;;;;;;;;11.75;10.75;;;;;16.62;59.66;101576.34;4942448;28;45394;-56
2021/06/24 05:08:22;;;;;;;;;11.50;10.50;;;;;16.62;59.77;101571.03;4942188;28;45324;-56
2021/06/24 05:10:49;;;;;;;;;14.25;12.00;;;;;16.61;59.90;101579.03;4942180;28;46403;-56
2021/06/24 05:13:15;;;;;;;;;10.25;10.25;;;;;16.61;59.35;101576.38;4941973;28;45237;-56
2021/06/24 05:15:45;;;;;;;;;14.75;11.50;;;;;16.61;59.58;101573.72;4956971;28;45330;-56
2021/06/24 05:18:12;;;;;;;;;12.50;10.25;;;;;16.59;59.80;101573.78;4941981;28;45301;-56
2021/06/24 05:20:39;;;;;;;;;15.25;12.75;;;;;16.60;60.04;101570.19;4941981;28;46363;-56
2021/06/24 05:23:06;;;;;;;;;12.00;11.00;;;;;16.58;59.64;101564.94;4941932;28;45255;-56
2021/06/24 05:25:32;;;;;;;;;12.00;12.00;;;;;16.61;59.83;101571.06;4942161;28;45303;-56
2021/06/24 05:27:57;;;;;;;;;16.25;10.75;;;;;16.61;59.70;101566.63;4941841;28;45244;-56
2021/06/24 05:30:23;;;;;;;;;16.75;13.50;;;;;16.61;59.76;101566.63;4941430;28;46134;-57
2021/06/24 05:32:48;;;;;;;;;14.75;13.50;;;;;16.63;59.56;101554.22;4941971;28;45306;-56
2021/06/24 05:35:13;;;;;;;;;14.25;12.00;;;;;16.64;59.50;101555.94;4942100;28;45292;-56
2021/06/24 05:37:39;;;;;;;;;11.75;11.25;;;;;16.65;59.91;101559.47;4941941;28;45340;-56
2021/06/24 05:40:05;;;;;;;;;12.75;11.75;;;;;16.68;59.43;101562.06;4941536;28;46251;-56
2021/06/24 05:42:31;;;;;;;;;13.75;13.25;;;;;16.71;59.64;101564.59;4956691;28;45513;-56
2021/06/24 05:44:56;;;;;;;;;11.00;10.75;;;;;16.72;59.71;101561.91;4940279;28;45429;-56
2021/06/24 05:47:21;;;;;;;;;12.75;12.75;;;;;16.73;59.63;101562.78;4941841;28;45328;-56
2021/06/24 05:49:47;;;;;;;;;15.25;11.00;;;;;16.75;59.68;101566.25;4940374;28;47217;-55
2021/06/24 05:52:12;;;;;;;;;17.50;13.25;;;;;16.74;59.78;101561.84;4940466;28;45291;-56
2021/06/24 05:54:38;;;;;;;;;15.25;12.25;;;;;16.76;59.60;101568.00;4941911;28;45324;-55
2021/06/24 05:57:03;;;;;;;;;14.75;12.00;;;;;16.77;59.80;101572.41;4941481;28;45596;-56
2021/06/24 05:59:29;;;;;;;;;15.50;14.50;;;;;16.77;59.89;101567.09;4941227;28;47308;-56
2021/06/24 06:01:54;;;;;;;;;14.50;12.25;;;;;16.77;59.38;101575.06;4941629;28;45238;-56
2021/06/24 06:04:20;;;;;;;;;13.00;10.75;;;;;16.79;59.69;101575.91;4941654;28;45203;-56
2021/06/24 06:06:45;;;;;;;;;9.50;9.50;;;;;16.80;59.50;101580.28;4941487;28;45571;-56
2021/06/24 06:09:12;;;;;;;;;15.00;13.50;;;;;16.82;59.72;101582.91;4940071;28;47269;-56
2021/06/24 06:11:37;;;;;;;;;16.50;15.75;;;;;16.81;59.71;101583.81;4940241;28;45831;-56
2021/06/24 06:14:03;;;;;;;;;17.00;14.50;;;;;16.82;59.50;101577.59;4941307;28;45325;-55
2021/06/24 06:16:28;;;;;;;;;15.00;14.75;;;;;16.84;59.62;101581.06;4941437;28;45285;-57
2021/06/24 06:18:55;;;;;;;;;15.00;13.50;;;;;16.85;59.87;101585.47;4941450;28;45384;-56
2021/06/24 06:21:21;;;;;;;;;12.50;10.50;;;;;16.84;59.69;101584.63;4941426;28;45339;-56
2021/06/24 06:23:47;;;;;;;;;12.25;11.25;;;;;16.87;59.65;101592.47;4941298;28;45338;-56
2021/06/24 06:26:12;;;;;;;;;10.50;10.50;;;;;16.87;59.61;101588.97;4955978;28;45322;-56
2021/06/24 06:28:38;;;;;;;;;12.75;11.75;;;;;16.90;59.67;101589.75;4940828;28;46244;-56
2021/06/24 06:31:03;;;;;;;;;10.50;9.00;;;;;16.92;59.79;101600.34;4939532;28;45230;-56
2021/06/24 06:33:29;;;;;;;;;14.75;10.00;;;;;16.95;59.72;101599.41;4941229;28;45163;-56
2021/06/24 06:35:54;;;;;;;;;13.25;11.50;;;;;16.98;59.55;101600.19;4939870;28;45481;-56
2021/06/24 06:38:20;;;;;;;;;14.25;13.00;;;;;16.99;59.50;101601.06;4941151;28;46053;-56
2021/06/24 06:40:46;;;;;;;;;12.00;11.75;;;;;17.00;59.48;101597.50;4941030;28;45288;-56
2021/06/24 06:43:12;;;;;;;;;10.50;9.75;;;;;17.04;59.53;101601.78;4941069;28;45291;-56
2021/06/24 06:45:38;;;;;;;;;10.50;9.50;;;;;17.06;59.62;101597.31;4941046;28;45159;-56
2021/06/24 06:48:04;;;;;;;;;19.00;14.75;;;;;17.12;59.59;101610.44;4940786;28;46157;-56
2021/06/24 06:50:31;;;;;;;;;14.25;13.00;;;;;17.15;59.55;101606.81;4940948;28;45279;-56
2021/06/24 06:52:56;;;;;;;;;11.50;10.50;;;;;17.17;59.42;101605.00;4942674;28;45480;-55
2021/06/24 06:55:28;;;;;;;;;12.00;11.75;;;;;17.20;59.34;101608.41;4944366;28;45292;-57
2021/06/24 06:57:53;;;;;;;;;11.50;8.50;;;;;17.20;59.26;101611.06;4944026;28;45603;-56
2021/06/24 07:00:19;;;;;;;;;14.50;12.50;;;;;17.24;59.15;101608.34;4944029;28;45302;-58
2021/06/24 07:02:44;;;;;;;;;13.00;12.00;;;;;17.22;59.24;101603.09;4958958;28;45423;-56
2021/06/24 07:05:10;;;;;;;;;11.25;11.25;;;;;17.20;59.26;101600.44;4944202;28;45578;-56
2021/06/24 07:07:35;;;;;;;;;14.00;13.75;;;;;17.19;59.16;101605.81;4943907;28;45366;-56
2021/06/24 07:10:01;;;;;;;;;13.50;12.25;;;;;17.22;59.12;101608.41;4944141;28;45385;-56
2021/06/24 07:12:26;;;;;;;;;13.50;11.25;;;;;17.22;59.16;101611.91;4942534;28;45469;-56
2021/06/24 07:14:52;;;;;;;;;14.75;12.75;;;;;17.21;59.15;101610.16;4943929;28;45474;-57
2021/06/24 07:17:17;;;;;;;;;17.75;16.75;;;;;17.20;58.94;101615.53;4943728;28;46269;-56
2021/06/24 07:19:42;;;;;;;;;15.00;10.75;;;;;17.20;59.25;101611.06;4944096;28;45235;-57
2021/06/24 07:22:08;;;;;;;;;13.50;13.50;;;;;17.19;59.36;101604.03;4943877;28;45374;-57
2021/06/24 07:24:33;;;;;;;;;16.75;12.75;;;;;17.18;59.02;101607.59;4943667;28;45243;-57
2021/06/24 07:26:59;;;;;;;;;15.75;13.00;;;;;17.22;59.03;101609.25;4942116;28;46072;-57
2021/06/24 07:29:24;;;;;;;;;14.75;13.50;;;;;17.22;58.98;101617.22;4954894;28;45250;-57
2021/06/24 07:31:49;;;;;;;;;11.75;11.00;;;;;17.24;59.14;101613.66;4937570;28;45261;-57
2021/06/24 07:34:15;;;;;;;;;14.25;13.25;;;;;17.24;59.00;101608.34;4943813;28;45251;-57
2021/06/24 07:36:40;;;;;;;;;13.25;12.25;;;;;17.27;59.12;101613.56;4943691;28;46182;-57
2021/06/24 07:39:06;;;;;;;;;13.75;13.00;;;;;17.25;58.92;101613.59;4943739;28;45367;-55
2021/06/24 07:41:31;;;;;;;;;13.75;13.00;;;;;17.28;59.21;101613.53;4943726;28;45511;-57
2021/06/24 07:43:56;;;;;;;;;15.75;12.25;;;;;17.29;59.05;101619.72;4943105;28;45372;-57
2021/06/24 07:46:24;;;;;;;;;19.50;14.25;;;;;17.31;59.22;101623.19;4943337;28;45248;-57
2021/06/24 07:48:49;;;;;;;;;19.25;16.25;;;;;17.31;59.13;101620.53;4943403;28;45389;-56
2021/06/24 07:51:15;;;;;;;;;19.25;15.75;;;;;17.34;59.15;101623.09;4943343;28;45492;-56
2021/06/24 07:53:43;;;;;;;;;12.25;11.00;;;;;17.35;58.99;101612.41;4943264;28;45344;-57
2021/06/24 07:56:10;;;;;;;;;16.25;12.75;;;;;17.42;59.07;101620.22;4942101;28;46583;-57
2021/06/24 07:58:36;;;;;;;;;13.25;12.00;;;;;17.43;59.02;101617.50;4942712;28;45425;-57
2021/06/24 08:01:02;;;;;;;;;12.75;12.25;;;;;17.45;59.01;101615.69;4943055;28;45319;-57
2021/06/24 08:03:28;;;;;;;;;14.50;13.00;;;;;17.46;59.33;101612.13;4942981;28;45330;-57
2021/06/24 08:05:53;;;;;;;;;15.25;13.25;;;;;17.48;59.00;101618.28;4943089;28;46095;-57
2021/06/24 08:08:19;;;;;;;;;15.00;13.50;;;;;17.51;59.00;101625.28;4941740;28;45441;-57
2021/06/24 08:10:44;;;;;;;;;12.00;11.50;;;;;17.54;58.86;101618.06;4943318;28;45318;-57
2021/06/24 08:13:09;;;;;;;;;18.50;16.00;;;;;17.58;59.12;101612.69;4942879;28;45300;-55
2021/06/24 08:15:35;;;;;;;;;18.25;15.50;;;;;17.59;58.98;101609.97;4942840;28;45438;-56
2021/06/24 08:18:00;;;;;;;;;16.50;16.50;;;;;17.61;58.94;101616.13;4942831;28;45362;-56
2021/06/24 08:20:26;;;;;;;;;18.75;12.25;;;;;17.64;58.69;101615.16;4957864;28;45414;-56
2021/06/24 08:22:53;;;;;;;;;17.25;17.25;;;;;17.68;59.01;101616.78;4942783;28;45379;-56
2021/06/24 08:25:18;;;;;;;;;18.00;15.75;;;;;17.71;58.46;101619.38;4942842;28;46997;-56
2021/06/24 08:27:44;;;;;;;;;18.25;15.00;;;;;17.72;59.03;101621.09;4942525;28;45215;-57
2021/06/24 08:30:10;;;;;;;;;21.50;18.00;;;;;17.75;58.77;101615.69;4954272;28;45512;-57
2021/06/24 08:32:37;;;;;;;;;17.00;16.00;;;;;17.79;58.83;101620.00;4942031;28;45856;-56
2021/06/24 08:35:04;;;;;;;;;15.75;15.25;;;;;17.82;58.90;101622.59;4942680;28;45251;-57
2021/06/24 08:37:30;;;;;;;;;21.00;16.00;;;;;17.86;58.97;101621.56;4942571;28;45318;-56
2021/06/24 08:39:55;;;;;;;;;16.75;14.25;;;;;17.87;59.01;101620.66;4942883;28;45256;-56
2021/06/24 08:42:21;;;;;;;;;15.75;13.75;;;;;17.93;58.87;101621.38;4942439;28;46707;-56
2021/06/24 08:44:46;;;;;;;;;19.25;18.50;;;;;17.97;58.69;101618.59;4942492;28;45301;-57
2021/06/24 08:47:13;;;;;;;;;14.50;13.50;;;;;18.00;58.72;101622.97;4942240;28;45255;-57
2021/06/24 08:49:40;;;;;;;;;18.00;15.00;;;;;18.03;58.84;101618.38;4942941;28;45218;-56
2021/06/24 08:52:07;;;;;;;;;19.00;13.75;;;;;18.08;59.15;101626.22;4942319;28;45188;-59
2021/06/24 08:54:33;;;;;;;;;16.25;15.50;;;;;18.13;58.55;101624.28;4942441;28;46194;-56
2021/06/24 08:56:58;;;;;;;;;20.50;16.25;;;;;18.16;58.56;101623.31;4942141;28;45353;-56
2021/06/24 08:59:24;;;;;;;;;20.00;17.00;;;;;18.22;58.75;101631.09;4942411;28;45271;-57
2021/06/24 09:01:55;;;;;;;;;16.25;13.75;;;;;18.27;58.94;101623.00;4942390;28;45539;-56
2021/06/24 09:04:23;;;;;;;;;16.00;15.00;;;;;18.33;58.77;101622.78;4957191;28;47124;-57
2021/06/24 09:06:49;;;;;;;;;16.50;15.25;;;;;18.36;58.65;101635.97;4942113;28;45292;-57
2021/06/24 09:09:34;;;;;;;;;14.50;14.50;;;;;18.42;58.30;101627.78;4942275;28;45344;-57
2021/06/24 09:12:06;;;;;;;;;17.00;15.50;;;;;18.48;58.58;101629.41;4941924;28;45422;-57
2021/06/24 09:14:48;;;;;;;;;20.75;16.00;;;;;18.51;58.41;101630.19;4941186;28;45262;-57
2021/06/24 09:17:33;;;;;;;;;19.75;15.75;;;;;18.57;58.66;101639.72;4942153;28;45235;-57
2021/06/24 09:19:59;;;;;;;;;19.50;15.50;;;;;18.60;58.41;101636.97;4942186;28;45271;-57
2021/06/24 09:22:25;;;;;;;;;20.75;19.50;;;;;18.64;58.64;101640.38;4941962;28;45246;-57
2021/06/24 09:24:50;;;;;;;;;17.50;15.25;;;;;18.69;58.46;101638.44;4941870;28;45235;-56
2021/06/24 09:27:18;;;;;;;;;15.00;14.75;;;;;18.74;58.61;101640.94;4941834;28;45413;-57
2021/06/24 09:30:13;;;;;;;;;31.75;27.75;;;;;18.77;58.56;101636.38;4941620;28;45427;-56
2021/06/24 09:32:40;;;;;;;;;23.25;22.75;;;;;18.82;58.44;101638.91;4941763;28;45299;-57
2021/06/24 09:35:07;;;;;;;;;23.00;18.00;;;;;18.79;58.47;101625.69;4941933;28;45334;-57
2021/06/24 09:38:02;;;;;;;;;19.50;17.25;;;;;18.90;58.31;101644.84;4941808;28;45590;-57
2021/06/24 09:40:39;;;;;;;;;16.75;15.75;;;;;18.94;58.15;101649.16;4937788;28;45519;-57
2021/06/24 09:43:05;;;;;;;;;13.50;13.00;;;;;18.97;58.17;101634.88;4941679;28;45301;-57
2021/06/24 09:45:30;;;;;;;;;17.25;14.25;;;;;19.02;58.29;101640.91;4941258;28;45372;-57
2021/06/24 09:48:16;;;;;;;;;17.25;15.75;;;;;19.07;58.20;101641.59;4941724;28;45309;-57
2021/06/24 09:50:41;;;;;;;;;18.75;17.00;;;;;19.10;57.86;101645.94;4941745;28;45484;-57
2021/06/24 09:53:12;;;;;;;;;18.00;16.75;;;;;19.17;58.02;101644.81;4941545;28;45171;-57
2021/06/24 09:55:38;;;;;;;;;12.75;12.75;;;;;19.24;58.05;101648.97;4941585;28;46332;-57
2021/06/24 09:58:17;;;;;;;;;20.50;14.50;;;;;19.28;58.09;101653.28;4941547;28;45293;-56
2021/06/24 10:00:50;;;;;;;;;16.00;15.50;;;;;19.36;58.18;101649.44;4941435;28;45502;-57
2021/06/24 10:03:15;;;;;;;;;12.50;12.25;;;;;19.42;57.91;101650.13;4941332;28;45239;-57
2021/06/24 10:05:41;;;;;;;;;23.00;17.25;;;;;19.48;57.87;101647.22;4939893;28;48315;-57
2021/06/24 10:08:07;;;;;;;;;25.25;22.75;;;;;19.56;58.22;101649.59;4941369;28;45240;-57
2021/06/24 10:10:34;;;;;;;;;13.00;12.00;;;;;19.61;57.63;101650.28;4956503;28;45296;-57
2021/06/24 10:12:59;;;;;;;;;15.50;13.25;;;;;19.68;58.01;101652.72;4941170;28;45409;-57
2021/06/24 10:15:27;;;;;;;;;15.25;13.50;;;;;19.75;58.10;101654.25;4941048;28;45377;-57
2021/06/24 10:17:55;;;;;;;;;14.75;14.00;;;;;19.83;57.92;101648.63;4941235;28;45438;-57
2021/06/24 10:20:21;;;;;;;;;16.50;15.00;;;;;19.90;57.42;101652.78;4941446;28;45282;-57
2021/06/24 10:22:55;;;;;;;;;15.75;14.00;;;;;19.98;57.21;101656.03;4940941;28;45535;-57
2021/06/24 10:25:22;;;;;;;;;15.00;13.25;;;;;20.06;57.25;101656.63;4941074;28;46165;-58
2021/06/24 10:27:53;;;;;;;;;14.25;14.00;;;;;20.12;57.78;101651.03;4942553;28;45271;-58
2021/06/24 10:30:21;;;;;;;;;32.00;29.50;;;;;20.18;57.21;101654.38;4942992;28;45312;-57
2021/06/24 10:33:09;;;;;;;;;24.50;21.50;;;;;20.25;57.53;101653.19;4944748;28;45223;-57
2021/06/24 10:35:36;;;;;;;;;17.00;15.00;;;;;20.32;56.83;101659.16;4944325;28;46177;-58
2021/06/24 10:38:03;;;;;;;;;14.00;12.75;;;;;20.38;57.25;101661.59;4944378;28;45270;-57
2021/06/24 10:40:30;;;;;;;;;13.75;13.75;;;;;20.42;57.38;101653.38;4944471;28;45270;-58
2021/06/24 10:42:58;;;;;;;;;16.50;14.00;;;;;20.49;56.82;101664.69;4944347;28;45247;-58
2021/06/24 10:45:24;;;;;;;;;15.00;13.00;;;;;20.55;56.98;101656.41;4943973;28;46116;-57
2021/06/24 10:47:50;;;;;;;;;15.50;14.75;;;;;20.59;56.61;101658.00;4944448;28;45303;-58
2021/06/24 10:50:34;;;;;;;;;11.25;11.25;;;;;20.70;56.39;101651.34;4944399;28;45417;-58
2021/06/24 10:53:22;;;;;;;;;16.50;15.25;;;;;20.76;56.46;101657.31;4944169;28;45386;-58
2021/06/24 10:55:50;;;;;;;;;13.00;12.00;;;;;20.85;56.67;101653.38;4944057;28;46120;-57
2021/06/24 10:58:18;;;;;;;;;17.00;14.75;;;;;20.94;56.57;101658.34;4943959;28;45237;-58
2021/06/24 11:00:50;;;;;;;;;15.50;14.75;;;;;21.03;56.22;101653.53;4944154;28;45573;-57
2021/06/24 11:03:18;;;;;;;;;15.50;14.75;;;;;21.09;56.59;101654.16;4944084;28;45184;-58
2021/06/24 11:05:48;;;;;;;;;16.75;14.75;;;;;21.17;56.14;101650.25;4943958;28;45367;-57
2021/06/24 11:08:32;;;;;;;;;16.50;16.50;;;;;21.26;55.92;101640.00;4943929;28;45310;-58